Hovedside
METAR-TAF:

METAR-TAF

Lufthavner :

Evenes, Norge

Harstad/Narvik lufthavn. Evenes

breddegrad: 68-31N, lengdegrad: 016-41E, høyde over havet: 26 m

Gjeldene værobservasjon

Denne rapporten ble laget for 35 minutter siden, klokken 20:50 UTC
Vind 13 kt fra Sørøst
Temperatur -8°C
Luftfuktighet 44%
Trykk 1042 hPa
Sikt 10 km eller mer
ingen skyer under 1500 m og ingen bygeskyer

METAR: ENEV 242050Z 13013KT CAVOK M08/M18 Q1042 RMK WIND 1400FT 12018KT

Tid: 22:25 (21:25 UTC)

Varsel

Denne rapporten ble laget for 13 timer og 25 minutter siden, klokken 08:00 UTC
Varsel gyldig fra 24. klokken 09 UTC til 24. klokken 14 UTC
Vind 5 kt fra Sør-sørøst
Sikt 10 km eller mer
ingen skyer under 1500 m og ingen bygeskyer
Midlertidig
fra 24. klokken 09 UTC til 24. klokken 14 UTC
Vind 15 kt fra Øst-sørøst

TAF: ENEV 240800Z 2409/2414 15005KT CAVOK TEMPO 2409/2414 12015KT

Værobservasjoner og værvarsel for over 4000 flyplasser (METAR- og TAF-rapporter).

Tilgjengelige stasjoner er representert av de røde og gule prikkene på kartet.

Hold musepekeren over prikken for å se navnet på stasjonen.

Klikk så for å se værobservasjoner og -varsler.

For å forandre kartet kan du klikke på den grønne knappen med svart kryss for å zoome inn, på den grønne knappen med strek for å zoome ut, eller på de grønne pilene for å se tilstøtende kart.


METAR-TAF: